sensor_id;sensor_type;location;lat;lon;timestamp;P1;durP1;ratioP1;P2;durP2;ratioP2
71730;SDS011;65964;43.496;3.710;2023-05-07T00:01:48;8.23;;;5.05;;
71730;SDS011;65964;43.496;3.710;2023-05-07T00:04:14;9.88;;;4.93;;
71730;SDS011;65964;43.496;3.710;2023-05-07T00:06:40;7.68;;;4.93;;
71730;SDS011;65964;43.496;3.710;2023-05-07T00:09:06;7.53;;;4.80;;
71730;SDS011;65964;43.496;3.710;2023-05-07T00:11:32;10.00;;;5.55;;
71730;SDS011;65964;43.496;3.710;2023-05-07T00:13:58;8.93;;;5.53;;
71730;SDS011;65964;43.496;3.710;2023-05-07T00:16:24;8.20;;;5.10;;
71730;SDS011;65964;43.496;3.710;2023-05-07T00:18:50;8.93;;;5.55;;
71730;SDS011;65964;43.496;3.710;2023-05-07T00:21:16;9.25;;;5.55;;
71730;SDS011;65964;43.496;3.710;2023-05-07T00:23:42;8.75;;;5.32;;
71730;SDS011;65964;43.496;3.710;2023-05-07T00:26:09;7.22;;;4.72;;
71730;SDS011;65964;43.496;3.710;2023-05-07T00:28:35;10.60;;;4.90;;
71730;SDS011;65964;43.496;3.710;2023-05-07T00:31:01;6.85;;;5.00;;
71730;SDS011;65964;43.496;3.710;2023-05-07T00:33:27;9.48;;;5.22;;
71730;SDS011;65964;43.496;3.710;2023-05-07T00:35:53;8.57;;;5.00;;
71730;SDS011;65964;43.496;3.710;2023-05-07T00:38:22;7.60;;;5.10;;
71730;SDS011;65964;43.496;3.710;2023-05-07T00:40:48;7.88;;;4.95;;
71730;SDS011;65964;43.496;3.710;2023-05-07T00:43:14;11.02;;;5.00;;
71730;SDS011;65964;43.496;3.710;2023-05-07T00:45:40;7.53;;;5.10;;
71730;SDS011;65964;43.496;3.710;2023-05-07T00:48:06;7.80;;;5.00;;
71730;SDS011;65964;43.496;3.710;2023-05-07T00:50:32;7.85;;;5.10;;
71730;SDS011;65964;43.496;3.710;2023-05-07T00:52:58;10.27;;;4.95;;
71730;SDS011;65964;43.496;3.710;2023-05-07T00:55:25;7.57;;;4.70;;
71730;SDS011;65964;43.496;3.710;2023-05-07T00:57:51;7.65;;;4.57;;
71730;SDS011;65964;43.496;3.710;2023-05-07T01:00:18;8.73;;;4.68;;
71730;SDS011;65964;43.496;3.710;2023-05-07T01:02:44;6.88;;;4.93;;
71730;SDS011;65964;43.496;3.710;2023-05-07T01:05:12;8.63;;;5.68;;
71730;SDS011;65964;43.496;3.710;2023-05-07T01:07:38;7.70;;;5.00;;
71730;SDS011;65964;43.496;3.710;2023-05-07T01:10:05;8.80;;;5.05;;
71730;SDS011;65964;43.496;3.710;2023-05-07T01:12:32;7.80;;;5.25;;
71730;SDS011;65964;43.496;3.710;2023-05-07T01:14:58;7.60;;;4.97;;
71730;SDS011;65964;43.496;3.710;2023-05-07T01:17:24;11.20;;;5.50;;
71730;SDS011;65964;43.496;3.710;2023-05-07T01:19:50;8.18;;;5.03;;
71730;SDS011;65964;43.496;3.710;2023-05-07T01:22:23;7.82;;;4.85;;
71730;SDS011;65964;43.496;3.710;2023-05-07T01:24:52;9.33;;;5.47;;
71730;SDS011;65964;43.496;3.710;2023-05-07T01:27:19;14.98;;;9.93;;
71730;SDS011;65964;43.496;3.710;2023-05-07T01:29:45;11.65;;;6.30;;
71730;SDS011;65964;43.496;3.710;2023-05-07T01:32:11;8.13;;;5.97;;
71730;SDS011;65964;43.496;3.710;2023-05-07T01:34:38;9.70;;;6.38;;
71730;SDS011;65964;43.496;3.710;2023-05-07T01:37:04;8.35;;;5.43;;
71730;SDS011;65964;43.496;3.710;2023-05-07T01:39:31;8.18;;;5.45;;
71730;SDS011;65964;43.496;3.710;2023-05-07T01:41:58;7.82;;;5.47;;
71730;SDS011;65964;43.496;3.710;2023-05-07T01:44:24;8.13;;;5.63;;
71730;SDS011;65964;43.496;3.710;2023-05-07T01:46:51;9.57;;;5.68;;
71730;SDS011;65964;43.496;3.710;2023-05-07T01:49:17;7.80;;;5.32;;
71730;SDS011;65964;43.496;3.710;2023-05-07T01:51:43;7.40;;;5.10;;
71730;SDS011;65964;43.496;3.710;2023-05-07T01:54:10;9.50;;;5.30;;
71730;SDS011;65964;43.496;3.710;2023-05-07T01:56:36;6.78;;;4.65;;
71730;SDS011;65964;43.496;3.710;2023-05-07T01:59:02;8.30;;;5.75;;
71730;SDS011;65964;43.496;3.710;2023-05-07T02:01:28;9.05;;;5.45;;
71730;SDS011;65964;43.496;3.710;2023-05-07T02:03:54;7.72;;;4.93;;
71730;SDS011;65964;43.496;3.710;2023-05-07T02:06:20;7.13;;;4.65;;
71730;SDS011;65964;43.496;3.710;2023-05-07T02:08:47;6.55;;;4.90;;
71730;SDS011;65964;43.496;3.710;2023-05-07T02:11:13;6.78;;;4.50;;
71730;SDS011;65964;43.496;3.710;2023-05-07T02:13:39;8.63;;;4.90;;
71730;SDS011;65964;43.496;3.710;2023-05-07T02:16:05;8.95;;;5.05;;
71730;SDS011;65964;43.496;3.710;2023-05-07T02:18:31;7.38;;;4.97;;
71730;SDS011;65964;43.496;3.710;2023-05-07T02:20:57;7.90;;;4.75;;
71730;SDS011;65964;43.496;3.710;2023-05-07T02:23:23;10.50;;;5.05;;
71730;SDS011;65964;43.496;3.710;2023-05-07T02:25:49;9.82;;;4.85;;
71730;SDS011;65964;43.496;3.710;2023-05-07T02:28:15;6.72;;;5.00;;
71730;SDS011;65964;43.496;3.710;2023-05-07T02:30:41;8.77;;;5.00;;
71730;SDS011;65964;43.496;3.710;2023-05-07T02:33:07;7.18;;;4.88;;
71730;SDS011;65964;43.496;3.710;2023-05-07T02:35:34;8.90;;;5.50;;
71730;SDS011;65964;43.496;3.710;2023-05-07T02:38:00;7.38;;;4.72;;
71730;SDS011;65964;43.496;3.710;2023-05-07T02:40:26;8.77;;;5.15;;
71730;SDS011;65964;43.496;3.710;2023-05-07T02:42:52;8.88;;;5.40;;
71730;SDS011;65964;43.496;3.710;2023-05-07T02:45:18;8.43;;;5.28;;
71730;SDS011;65964;43.496;3.710;2023-05-07T02:47:44;8.23;;;5.10;;
71730;SDS011;65964;43.496;3.710;2023-05-07T02:50:10;7.45;;;5.10;;
71730;SDS011;65964;43.496;3.710;2023-05-07T02:52:36;8.70;;;5.20;;
71730;SDS011;65964;43.496;3.710;2023-05-07T02:55:02;10.25;;;5.82;;
71730;SDS011;65964;43.496;3.710;2023-05-07T02:57:28;9.18;;;6.10;;
71730;SDS011;65964;43.496;3.710;2023-05-07T02:59:54;11.05;;;6.35;;
71730;SDS011;65964;43.496;3.710;2023-05-07T03:02:20;9.30;;;5.63;;
71730;SDS011;65964;43.496;3.710;2023-05-07T03:04:46;8.90;;;5.65;;
71730;SDS011;65964;43.496;3.710;2023-05-07T03:07:12;11.73;;;5.55;;
71730;SDS011;65964;43.496;3.710;2023-05-07T03:09:39;8.43;;;5.15;;
71730;SDS011;65964;43.496;3.710;2023-05-07T03:12:05;7.13;;;5.13;;
71730;SDS011;65964;43.496;3.710;2023-05-07T03:14:31;11.00;;;5.43;;
71730;SDS011;65964;43.496;3.710;2023-05-07T03:16:57;9.15;;;5.60;;
71730;SDS011;65964;43.496;3.710;2023-05-07T03:19:23;9.15;;;5.30;;
71730;SDS011;65964;43.496;3.710;2023-05-07T03:21:49;8.57;;;5.50;;
71730;SDS011;65964;43.496;3.710;2023-05-07T03:24:15;8.02;;;5.43;;
71730;SDS011;65964;43.496;3.710;2023-05-07T03:26:41;10.77;;;5.47;;
71730;SDS011;65964;43.496;3.710;2023-05-07T03:29:07;7.35;;;5.22;;
71730;SDS011;65964;43.496;3.710;2023-05-07T03:31:33;9.35;;;5.88;;
71730;SDS011;65964;43.496;3.710;2023-05-07T03:33:59;12.40;;;5.97;;
71730;SDS011;65964;43.496;3.710;2023-05-07T03:36:25;9.43;;;5.55;;
71730;SDS011;65964;43.496;3.710;2023-05-07T03:38:52;8.60;;;5.53;;
71730;SDS011;65964;43.496;3.710;2023-05-07T03:41:18;10.00;;;6.28;;
71730;SDS011;65964;43.496;3.710;2023-05-07T03:43:45;9.80;;;6.15;;
71730;SDS011;65964;43.496;3.710;2023-05-07T03:46:11;10.43;;;5.78;;
71730;SDS011;65964;43.496;3.710;2023-05-07T03:48:37;9.65;;;6.30;;
71730;SDS011;65964;43.496;3.710;2023-05-07T03:51:03;11.52;;;6.03;;
71730;SDS011;65964;43.496;3.710;2023-05-07T03:53:29;9.73;;;5.97;;
71730;SDS011;65964;43.496;3.710;2023-05-07T03:55:55;8.55;;;5.95;;
71730;SDS011;65964;43.496;3.710;2023-05-07T03:58:21;9.65;;;5.28;;
71730;SDS011;65964;43.496;3.710;2023-05-07T04:00:47;12.20;;;5.57;;
71730;SDS011;65964;43.496;3.710;2023-05-07T04:03:13;8.90;;;5.80;;
71730;SDS011;65964;43.496;3.710;2023-05-07T04:05:40;8.32;;;5.43;;
71730;SDS011;65964;43.496;3.710;2023-05-07T04:08:06;7.80;;;5.28;;
71730;SDS011;65964;43.496;3.710;2023-05-07T04:10:32;12.25;;;5.38;;
71730;SDS011;65964;43.496;3.710;2023-05-07T04:12:58;8.27;;;5.00;;
71730;SDS011;65964;43.496;3.710;2023-05-07T04:15:24;8.48;;;4.78;;
71730;SDS011;65964;43.496;3.710;2023-05-07T04:17:50;8.98;;;5.20;;
71730;SDS011;65964;43.496;3.710;2023-05-07T04:20:16;7.55;;;5.30;;
71730;SDS011;65964;43.496;3.710;2023-05-07T04:22:43;10.77;;;5.55;;
71730;SDS011;65964;43.496;3.710;2023-05-07T04:25:09;8.65;;;5.03;;
71730;SDS011;65964;43.496;3.710;2023-05-07T04:27:35;7.43;;;4.63;;
71730;SDS011;65964;43.496;3.710;2023-05-07T04:30:02;8.05;;;5.25;;
71730;SDS011;65964;43.496;3.710;2023-05-07T04:32:29;7.15;;;4.57;;
71730;SDS011;65964;43.496;3.710;2023-05-07T04:34:55;9.20;;;5.40;;
71730;SDS011;65964;43.496;3.710;2023-05-07T04:37:21;9.30;;;4.80;;
71730;SDS011;65964;43.496;3.710;2023-05-07T04:39:48;8.05;;;4.95;;
71730;SDS011;65964;43.496;3.710;2023-05-07T04:42:15;8.50;;;5.38;;
71730;SDS011;65964;43.496;3.710;2023-05-07T04:44:41;10.55;;;4.72;;
71730;SDS011;65964;43.496;3.710;2023-05-07T04:47:07;7.63;;;4.82;;
71730;SDS011;65964;43.496;3.710;2023-05-07T04:49:33;8.65;;;5.50;;
71730;SDS011;65964;43.496;3.710;2023-05-07T04:51:59;7.10;;;5.10;;
71730;SDS011;65964;43.496;3.710;2023-05-07T04:54:26;9.05;;;5.22;;
71730;SDS011;65964;43.496;3.710;2023-05-07T04:56:52;8.73;;;5.18;;
71730;SDS011;65964;43.496;3.710;2023-05-07T04:59:18;8.23;;;5.10;;
71730;SDS011;65964;43.496;3.710;2023-05-07T05:01:44;8.85;;;5.05;;
71730;SDS011;65964;43.496;3.710;2023-05-07T05:04:10;10.90;;;4.97;;
71730;SDS011;65964;43.496;3.710;2023-05-07T05:06:36;7.38;;;4.82;;
71730;SDS011;65964;43.496;3.710;2023-05-07T05:09:02;6.40;;;4.60;;
71730;SDS011;65964;43.496;3.710;2023-05-07T05:11:29;6.97;;;4.55;;
71730;SDS011;65964;43.496;3.710;2023-05-07T05:13:55;9.02;;;4.57;;
71730;SDS011;65964;43.496;3.710;2023-05-07T05:16:22;7.13;;;4.38;;
71730;SDS011;65964;43.496;3.710;2023-05-07T05:18:48;7.97;;;5.07;;
71730;SDS011;65964;43.496;3.710;2023-05-07T05:21:14;10.15;;;4.68;;
71730;SDS011;65964;43.496;3.710;2023-05-07T05:23:40;9.30;;;4.60;;
71730;SDS011;65964;43.496;3.710;2023-05-07T05:26:06;9.10;;;4.60;;
71730;SDS011;65964;43.496;3.710;2023-05-07T05:28:32;7.95;;;4.85;;
71730;SDS011;65964;43.496;3.710;2023-05-07T05:30:58;7.05;;;4.40;;
71730;SDS011;65964;43.496;3.710;2023-05-07T05:33:24;6.72;;;4.07;;
71730;SDS011;65964;43.496;3.710;2023-05-07T05:35:50;8.25;;;3.78;;
71730;SDS011;65964;43.496;3.710;2023-05-07T05:38:16;7.18;;;3.38;;
71730;SDS011;65964;43.496;3.710;2023-05-07T05:40:42;7.38;;;3.33;;
71730;SDS011;65964;43.496;3.710;2023-05-07T05:43:08;8.65;;;3.50;;
71730;SDS011;65964;43.496;3.710;2023-05-07T05:45:34;8.68;;;3.25;;
71730;SDS011;65964;43.496;3.710;2023-05-07T05:48:00;6.72;;;2.83;;
71730;SDS011;65964;43.496;3.710;2023-05-07T05:50:26;6.38;;;2.70;;
71730;SDS011;65964;43.496;3.710;2023-05-07T05:52:52;5.50;;;2.65;;
71730;SDS011;65964;43.496;3.710;2023-05-07T05:55:18;5.35;;;2.17;;
71730;SDS011;65964;43.496;3.710;2023-05-07T05:57:45;4.85;;;2.50;;
71730;SDS011;65964;43.496;3.710;2023-05-07T06:00:11;4.78;;;2.47;;
71730;SDS011;65964;43.496;3.710;2023-05-07T06:02:37;6.10;;;2.67;;
71730;SDS011;65964;43.496;3.710;2023-05-07T06:05:03;4.40;;;2.30;;
71730;SDS011;65964;43.496;3.710;2023-05-07T06:07:29;5.65;;;2.47;;
71730;SDS011;65964;43.496;3.710;2023-05-07T06:09:55;4.70;;;2.60;;
71730;SDS011;65964;43.496;3.710;2023-05-07T06:12:21;6.43;;;2.50;;
71730;SDS011;65964;43.496;3.710;2023-05-07T06:14:47;6.18;;;2.92;;
71730;SDS011;65964;43.496;3.710;2023-05-07T06:17:13;6.80;;;2.75;;
71730;SDS011;65964;43.496;3.710;2023-05-07T06:19:39;4.95;;;2.40;;
71730;SDS011;65964;43.496;3.710;2023-05-07T06:22:05;6.03;;;2.65;;
71730;SDS011;65964;43.496;3.710;2023-05-07T06:24:31;6.65;;;2.55;;
71730;SDS011;65964;43.496;3.710;2023-05-07T06:26:57;4.72;;;2.40;;
71730;SDS011;65964;43.496;3.710;2023-05-07T06:29:24;5.43;;;2.30;;
71730;SDS011;65964;43.496;3.710;2023-05-07T06:31:51;7.03;;;2.50;;
71730;SDS011;65964;43.496;3.710;2023-05-07T06:34:17;6.25;;;2.25;;
71730;SDS011;65964;43.496;3.710;2023-05-07T06:36:43;3.60;;;2.00;;
71730;SDS011;65964;43.496;3.710;2023-05-07T06:39:09;7.55;;;2.65;;
71730;SDS011;65964;43.496;3.710;2023-05-07T06:41:35;6.97;;;2.42;;
71730;SDS011;65964;43.496;3.710;2023-05-07T06:44:02;6.75;;;2.50;;
71730;SDS011;65964;43.496;3.710;2023-05-07T06:46:28;7.15;;;2.63;;
71730;SDS011;65964;43.496;3.710;2023-05-07T06:48:54;14.75;;;7.22;;
71730;SDS011;65964;43.496;3.710;2023-05-07T06:51:21;10.45;;;4.25;;
71730;SDS011;65964;43.496;3.710;2023-05-07T06:53:47;5.20;;;2.60;;
71730;SDS011;65964;43.496;3.710;2023-05-07T06:56:13;9.48;;;2.42;;
71730;SDS011;65964;43.496;3.710;2023-05-07T06:58:40;7.43;;;2.20;;
71730;SDS011;65964;43.496;3.710;2023-05-07T07:01:06;7.10;;;2.10;;
71730;SDS011;65964;43.496;3.710;2023-05-07T07:03:32;4.85;;;1.90;;
71730;SDS011;65964;43.496;3.710;2023-05-07T07:05:58;4.80;;;2.05;;
71730;SDS011;65964;43.496;3.710;2023-05-07T07:08:24;4.65;;;1.88;;
71730;SDS011;65964;43.496;3.710;2023-05-07T07:10:50;3.85;;;2.00;;
71730;SDS011;65964;43.496;3.710;2023-05-07T07:13:16;5.97;;;2.10;;
71730;SDS011;65964;43.496;3.710;2023-05-07T07:15:43;5.75;;;2.20;;
71730;SDS011;65964;43.496;3.710;2023-05-07T07:18:10;3.72;;;1.70;;
71730;SDS011;65964;43.496;3.710;2023-05-07T07:20:36;3.97;;;1.70;;
71730;SDS011;65964;43.496;3.710;2023-05-07T07:23:02;3.67;;;1.70;;
71730;SDS011;65964;43.496;3.710;2023-05-07T07:25:28;2.65;;;1.50;;
71730;SDS011;65964;43.496;3.710;2023-05-07T07:27:54;3.42;;;1.60;;
71730;SDS011;65964;43.496;3.710;2023-05-07T07:30:20;5.32;;;1.70;;
71730;SDS011;65964;43.496;3.710;2023-05-07T07:32:46;2.92;;;1.50;;
71730;SDS011;65964;43.496;3.710;2023-05-07T07:35:12;2.45;;;1.60;;
71730;SDS011;65964;43.496;3.710;2023-05-07T07:37:38;4.72;;;1.85;;
71730;SDS011;65964;43.496;3.710;2023-05-07T07:40:04;3.65;;;1.90;;
71730;SDS011;65964;43.496;3.710;2023-05-07T07:42:30;3.90;;;1.70;;
71730;SDS011;65964;43.496;3.710;2023-05-07T07:44:56;4.40;;;1.80;;
71730;SDS011;65964;43.496;3.710;2023-05-07T07:47:22;3.63;;;1.60;;
71730;SDS011;65964;43.496;3.710;2023-05-07T07:49:48;4.82;;;2.30;;
71730;SDS011;65964;43.496;3.710;2023-05-07T07:52:14;1.65;;;1.50;;
71730;SDS011;65964;43.496;3.710;2023-05-07T07:54:40;3.03;;;1.70;;
71730;SDS011;65964;43.496;3.710;2023-05-07T07:57:06;7.05;;;2.53;;
71730;SDS011;65964;43.496;3.710;2023-05-07T07:59:32;4.18;;;1.90;;
71730;SDS011;65964;43.496;3.710;2023-05-07T08:01:58;3.45;;;1.70;;
71730;SDS011;65964;43.496;3.710;2023-05-07T08:04:24;3.63;;;2.08;;
71730;SDS011;65964;43.496;3.710;2023-05-07T08:06:50;3.78;;;1.70;;
71730;SDS011;65964;43.496;3.710;2023-05-07T08:09:16;1.95;;;1.50;;
71730;SDS011;65964;43.496;3.710;2023-05-07T08:11:42;5.63;;;2.08;;
71730;SDS011;65964;43.496;3.710;2023-05-07T08:14:08;2.05;;;1.63;;
71730;SDS011;65964;43.496;3.710;2023-05-07T08:16:34;2.58;;;1.60;;
71730;SDS011;65964;43.496;3.710;2023-05-07T08:19:00;5.65;;;1.70;;
71730;SDS011;65964;43.496;3.710;2023-05-07T08:21:26;4.13;;;1.92;;
71730;SDS011;65964;43.496;3.710;2023-05-07T08:23:52;5.45;;;1.70;;
71730;SDS011;65964;43.496;3.710;2023-05-07T08:26:18;3.05;;;2.03;;
71730;SDS011;65964;43.496;3.710;2023-05-07T08:28:45;2.88;;;1.75;;
71730;SDS011;65964;43.496;3.710;2023-05-07T08:31:11;3.40;;;1.70;;
71730;SDS011;65964;43.496;3.710;2023-05-07T08:33:37;4.35;;;1.65;;
71730;SDS011;65964;43.496;3.710;2023-05-07T08:36:03;2.47;;;1.70;;
71730;SDS011;65964;43.496;3.710;2023-05-07T08:38:30;4.28;;;1.58;;
71730;SDS011;65964;43.496;3.710;2023-05-07T08:40:56;3.38;;;1.50;;
71730;SDS011;65964;43.496;3.710;2023-05-07T08:43:22;3.38;;;1.50;;
71730;SDS011;65964;43.496;3.710;2023-05-07T08:45:51;3.70;;;1.80;;
71730;SDS011;65964;43.496;3.710;2023-05-07T08:48:17;8.38;;;2.17;;
71730;SDS011;65964;43.496;3.710;2023-05-07T08:50:45;4.63;;;1.63;;
71730;SDS011;65964;43.496;3.710;2023-05-07T08:53:11;3.65;;;2.10;;
71730;SDS011;65964;43.496;3.710;2023-05-07T08:55:38;6.43;;;3.15;;
71730;SDS011;65964;43.496;3.710;2023-05-07T08:58:04;7.53;;;4.43;;
71730;SDS011;65964;43.496;3.710;2023-05-07T09:00:30;3.58;;;1.88;;
71730;SDS011;65964;43.496;3.710;2023-05-07T09:02:56;3.53;;;1.70;;
71730;SDS011;65964;43.496;3.710;2023-05-07T09:05:22;3.78;;;1.80;;
71730;SDS011;65964;43.496;3.710;2023-05-07T09:07:48;2.10;;;1.40;;
71730;SDS011;65964;43.496;3.710;2023-05-07T09:10:15;3.95;;;1.60;;
71730;SDS011;65964;43.496;3.710;2023-05-07T09:12:41;6.82;;;1.60;;
71730;SDS011;65964;43.496;3.710;2023-05-07T09:15:07;2.90;;;1.60;;
71730;SDS011;65964;43.496;3.710;2023-05-07T09:17:33;3.17;;;1.50;;
71730;SDS011;65964;43.496;3.710;2023-05-07T09:20:03;4.32;;;1.80;;
71730;SDS011;65964;43.496;3.710;2023-05-07T09:22:33;2.13;;;1.60;;
71730;SDS011;65964;43.496;3.710;2023-05-07T09:24:59;2.45;;;1.58;;
71730;SDS011;65964;43.496;3.710;2023-05-07T09:27:25;2.25;;;1.60;;
71730;SDS011;65964;43.496;3.710;2023-05-07T09:29:51;2.80;;;1.80;;
71730;SDS011;65964;43.496;3.710;2023-05-07T09:32:17;3.13;;;1.95;;
71730;SDS011;65964;43.496;3.710;2023-05-07T09:34:43;3.10;;;2.05;;
71730;SDS011;65964;43.496;3.710;2023-05-07T09:37:10;3.28;;;1.83;;
71730;SDS011;65964;43.496;3.710;2023-05-07T09:42:06;3.42;;;2.20;;
71730;SDS011;65964;43.496;3.710;2023-05-07T09:44:33;2.75;;;1.80;;
71730;SDS011;65964;43.496;3.710;2023-05-07T09:47:00;2.65;;;1.65;;
71730;SDS011;65964;43.496;3.710;2023-05-07T09:49:27;2.53;;;1.63;;
71730;SDS011;65964;43.496;3.710;2023-05-07T09:51:55;2.20;;;1.52;;
71730;SDS011;65964;43.496;3.710;2023-05-07T09:54:22;4.53;;;1.63;;
71730;SDS011;65964;43.496;3.710;2023-05-07T09:56:48;3.33;;;1.75;;
71730;SDS011;65964;43.496;3.710;2023-05-07T09:59:16;4.40;;;1.75;;
71730;SDS011;65964;43.496;3.710;2023-05-07T10:01:42;2.58;;;1.60;;
71730;SDS011;65964;43.496;3.710;2023-05-07T10:04:09;3.08;;;1.80;;
71730;SDS011;65964;43.496;3.710;2023-05-07T10:06:35;2.30;;;1.70;;
71730;SDS011;65964;43.496;3.710;2023-05-07T10:09:02;1.92;;;1.52;;
71730;SDS011;65964;43.496;3.710;2023-05-07T10:11:31;3.90;;;1.73;;
71730;SDS011;65964;43.496;3.710;2023-05-07T10:13:58;2.83;;;1.60;;
71730;SDS011;65964;43.496;3.710;2023-05-07T10:16:24;4.35;;;1.70;;
71730;SDS011;65964;43.496;3.710;2023-05-07T10:18:52;2.53;;;1.30;;
71730;SDS011;65964;43.496;3.710;2023-05-07T10:21:19;2.38;;;1.65;;
71730;SDS011;65964;43.496;3.710;2023-05-07T10:23:46;2.53;;;1.40;;
71730;SDS011;65964;43.496;3.710;2023-05-07T10:26:14;3.05;;;1.40;;
71730;SDS011;65964;43.496;3.710;2023-05-07T10:28:41;2.42;;;1.30;;
71730;SDS011;65964;43.496;3.710;2023-05-07T10:33:34;2.08;;;1.50;;
71730;SDS011;65964;43.496;3.710;2023-05-07T10:36:02;2.30;;;1.33;;
71730;SDS011;65964;43.496;3.710;2023-05-07T10:38:29;1.98;;;1.25;;
71730;SDS011;65964;43.496;3.710;2023-05-07T10:40:55;2.38;;;1.20;;
71730;SDS011;65964;43.496;3.710;2023-05-07T10:43:21;4.15;;;2.53;;
71730;SDS011;65964;43.496;3.710;2023-05-07T10:51:20;2.33;;;1.27;;
71730;SDS011;65964;43.496;3.710;2023-05-07T10:53:45;2.85;;;1.30;;
71730;SDS011;65964;43.496;3.710;2023-05-07T10:58:43;3.63;;;1.63;;
71730;SDS011;65964;43.496;3.710;2023-05-07T11:01:09;2.65;;;1.50;;
71730;SDS011;65964;43.496;3.710;2023-05-07T11:03:37;2.58;;;1.55;;
71730;SDS011;65964;43.496;3.710;2023-05-07T11:06:23;1.80;;;1.40;;
71730;SDS011;65964;43.496;3.710;2023-05-07T11:08:54;3.60;;;1.70;;
71730;SDS011;65964;43.496;3.710;2023-05-07T11:11:42;2.75;;;1.17;;
71730;SDS011;65964;43.496;3.710;2023-05-07T11:14:06;2.33;;;1.10;;
71730;SDS011;65964;43.496;3.710;2023-05-07T11:16:32;1.77;;;1.00;;
71730;SDS011;65964;43.496;3.710;2023-05-07T11:19:01;2.53;;;1.27;;
71730;SDS011;65964;43.496;3.710;2023-05-07T11:21:37;3.50;;;1.50;;
71730;SDS011;65964;43.496;3.710;2023-05-07T11:24:04;5.25;;;1.90;;
71730;SDS011;65964;43.496;3.710;2023-05-07T11:26:31;1.65;;;1.30;;
71730;SDS011;65964;43.496;3.710;2023-05-07T11:29:10;4.88;;;1.70;;
71730;SDS011;65964;43.496;3.710;2023-05-07T11:31:36;1.65;;;1.50;;
71730;SDS011;65964;43.496;3.710;2023-05-07T11:34:02;2.17;;;1.52;;
71730;SDS011;65964;43.496;3.710;2023-05-07T11:36:31;2.42;;;1.40;;
71730;SDS011;65964;43.496;3.710;2023-05-07T11:38:57;2.13;;;1.20;;
71730;SDS011;65964;43.496;3.710;2023-05-07T11:41:32;3.47;;;1.30;;
71730;SDS011;65964;43.496;3.710;2023-05-07T11:43:59;3.38;;;1.30;;
71730;SDS011;65964;43.496;3.710;2023-05-07T11:46:26;2.03;;;1.20;;
71730;SDS011;65964;43.496;3.710;2023-05-07T11:48:52;3.35;;;1.55;;
71730;SDS011;65964;43.496;3.710;2023-05-07T11:51:19;2.85;;;1.40;;
71730;SDS011;65964;43.496;3.710;2023-05-07T11:53:45;1.65;;;1.30;;
71730;SDS011;65964;43.496;3.710;2023-05-07T11:56:12;1.90;;;1.30;;
71730;SDS011;65964;43.496;3.710;2023-05-07T11:58:39;4.13;;;1.50;;
71730;SDS011;65964;43.496;3.710;2023-05-07T12:01:09;1.85;;;1.38;;
71730;SDS011;65964;43.496;3.710;2023-05-07T12:03:36;2.60;;;1.38;;
71730;SDS011;65964;43.496;3.710;2023-05-07T12:06:02;3.72;;;1.60;;
71730;SDS011;65964;43.496;3.710;2023-05-07T12:08:31;3.90;;;1.60;;
71730;SDS011;65964;43.496;3.710;2023-05-07T12:10:57;3.03;;;1.55;;
71730;SDS011;65964;43.496;3.710;2023-05-07T12:13:24;3.38;;;2.10;;
71730;SDS011;65964;43.496;3.710;2023-05-07T12:15:51;3.65;;;2.00;;
71730;SDS011;65964;43.496;3.710;2023-05-07T12:18:17;4.07;;;2.40;;
71730;SDS011;65964;43.496;3.710;2023-05-07T12:20:43;4.80;;;2.83;;
71730;SDS011;65964;43.496;3.710;2023-05-07T12:23:10;4.70;;;2.20;;
71730;SDS011;65964;43.496;3.710;2023-05-07T12:25:37;3.13;;;1.63;;
71730;SDS011;65964;43.496;3.710;2023-05-07T12:28:03;2.03;;;1.50;;
71730;SDS011;65964;43.496;3.710;2023-05-07T12:30:30;4.93;;;1.70;;
71730;SDS011;65964;43.496;3.710;2023-05-07T12:32:56;4.45;;;1.48;;
71730;SDS011;65964;43.496;3.710;2023-05-07T12:35:29;1.90;;;1.50;;
71730;SDS011;65964;43.496;3.710;2023-05-07T12:37:56;2.33;;;1.42;;
71730;SDS011;65964;43.496;3.710;2023-05-07T12:40:24;3.10;;;1.40;;
71730;SDS011;65964;43.496;3.710;2023-05-07T12:42:52;4.05;;;1.60;;
71730;SDS011;65964;43.496;3.710;2023-05-07T12:45:21;2.28;;;1.40;;
71730;SDS011;65964;43.496;3.710;2023-05-07T12:47:47;1.77;;;1.30;;
71730;SDS011;65964;43.496;3.710;2023-05-07T12:50:13;2.47;;;1.60;;
71730;SDS011;65964;43.496;3.710;2023-05-07T12:52:40;3.85;;;1.42;;
71730;SDS011;65964;43.496;3.710;2023-05-07T12:55:06;3.45;;;1.40;;
71730;SDS011;65964;43.496;3.710;2023-05-07T12:57:39;2.15;;;1.40;;
71730;SDS011;65964;43.496;3.710;2023-05-07T13:00:05;3.25;;;1.40;;
71730;SDS011;65964;43.496;3.710;2023-05-07T13:02:37;4.50;;;1.88;;
71730;SDS011;65964;43.496;3.710;2023-05-07T13:05:03;3.58;;;1.33;;
71730;SDS011;65964;43.496;3.710;2023-05-07T13:07:29;2.58;;;1.40;;
71730;SDS011;65964;43.496;3.710;2023-05-07T13:09:55;2.63;;;1.30;;
71730;SDS011;65964;43.496;3.710;2023-05-07T13:12:21;2.95;;;1.50;;
71730;SDS011;65964;43.496;3.710;2023-05-07T13:14:47;3.97;;;1.40;;
71730;SDS011;65964;43.496;3.710;2023-05-07T13:17:13;2.65;;;1.30;;
71730;SDS011;65964;43.496;3.710;2023-05-07T13:19:39;2.75;;;1.30;;
71730;SDS011;65964;43.496;3.710;2023-05-07T13:22:05;2.00;;;1.30;;
71730;SDS011;65964;43.496;3.710;2023-05-07T13:24:31;3.47;;;1.38;;
71730;SDS011;65964;43.496;3.710;2023-05-07T13:26:57;2.45;;;1.45;;
71730;SDS011;65964;43.496;3.710;2023-05-07T13:29:23;1.73;;;1.40;;
71730;SDS011;65964;43.496;3.710;2023-05-07T13:31:54;1.98;;;1.10;;
71730;SDS011;65964;43.496;3.710;2023-05-07T13:34:20;2.30;;;1.40;;
71730;SDS011;65964;43.496;3.710;2023-05-07T13:36:46;3.08;;;1.30;;
71730;SDS011;65964;43.496;3.710;2023-05-07T13:39:12;2.58;;;1.40;;
71730;SDS011;65964;43.496;3.710;2023-05-07T13:41:38;2.45;;;1.38;;
71730;SDS011;65964;43.496;3.710;2023-05-07T13:44:04;3.03;;;1.40;;
71730;SDS011;65964;43.496;3.710;2023-05-07T13:46:30;3.20;;;1.60;;
71730;SDS011;65964;43.496;3.710;2023-05-07T13:48:56;2.47;;;1.42;;
71730;SDS011;65964;43.496;3.710;2023-05-07T13:51:23;2.63;;;1.30;;
71730;SDS011;65964;43.496;3.710;2023-05-07T13:53:49;5.40;;;2.28;;
71730;SDS011;65964;43.496;3.710;2023-05-07T13:56:15;3.80;;;1.50;;
71730;SDS011;65964;43.496;3.710;2023-05-07T13:58:41;5.22;;;1.60;;
71730;SDS011;65964;43.496;3.710;2023-05-07T14:01:07;3.92;;;1.33;;
71730;SDS011;65964;43.496;3.710;2023-05-07T14:03:33;3.00;;;1.40;;
71730;SDS011;65964;43.496;3.710;2023-05-07T14:06:00;5.10;;;1.60;;
71730;SDS011;65964;43.496;3.710;2023-05-07T14:08:26;6.00;;;1.75;;
71730;SDS011;65964;43.496;3.710;2023-05-07T14:10:52;5.68;;;2.15;;
71730;SDS011;65964;43.496;3.710;2023-05-07T14:13:19;3.20;;;1.27;;
71730;SDS011;65964;43.496;3.710;2023-05-07T14:15:45;3.50;;;1.73;;
71730;SDS011;65964;43.496;3.710;2023-05-07T14:18:14;5.35;;;1.60;;
71730;SDS011;65964;43.496;3.710;2023-05-07T14:20:40;4.03;;;1.50;;
71730;SDS011;65964;43.496;3.710;2023-05-07T14:23:08;3.60;;;1.55;;
71730;SDS011;65964;43.496;3.710;2023-05-07T14:25:34;3.95;;;1.42;;
71730;SDS011;65964;43.496;3.710;2023-05-07T14:28:00;4.15;;;1.50;;
71730;SDS011;65964;43.496;3.710;2023-05-07T14:30:26;4.22;;;1.40;;
71730;SDS011;65964;43.496;3.710;2023-05-07T14:32:52;5.28;;;1.63;;
71730;SDS011;65964;43.496;3.710;2023-05-07T14:35:18;3.50;;;1.40;;
71730;SDS011;65964;43.496;3.710;2023-05-07T14:37:45;6.40;;;1.60;;
71730;SDS011;65964;43.496;3.710;2023-05-07T14:40:11;3.90;;;1.50;;
71730;SDS011;65964;43.496;3.710;2023-05-07T14:42:37;7.88;;;1.77;;
71730;SDS011;65964;43.496;3.710;2023-05-07T14:45:03;5.13;;;1.50;;
71730;SDS011;65964;43.496;3.710;2023-05-07T14:47:29;5.53;;;1.70;;
71730;SDS011;65964;43.496;3.710;2023-05-07T14:49:55;2.90;;;1.60;;
71730;SDS011;65964;43.496;3.710;2023-05-07T14:52:22;5.00;;;1.70;;
71730;SDS011;65964;43.496;3.710;2023-05-07T14:54:48;4.75;;;2.00;;
71730;SDS011;65964;43.496;3.710;2023-05-07T14:57:14;5.47;;;2.20;;